Eko 2 — SY9957 — position and weather

sailwx.info

Track history (hours):
 
Tides and Currents Weather Stations Pressure Air Temp Water Temp Dewpoint Dewpoint Depression Visibility Wind Speed Wind Dir Waves Ship Positions

Eko 2

Last reported at 2014-Dec-21 03:33 UTC. Time now 2014-Dec-21 04:03 UTC.
Position N 36°60' E 026°02'.

Length 89 m; draft 4.3 m.

Type: Ship (hazmat cat A). MMSI: 240827000.

Date/timePositionNaut miles runAvg speedWind from/ knotsBaromVisibWave heightAir tempDewpointWater temp
2014-Dec-21 03:33N 36°60' E 026°02'9 8.8
2014-Dec-21 02:31N 36°57' E 026°13'10 9.8
2014-Dec-21 01:27N 36°52' E 026°24'1010.2
2014-Dec-21 00:31N 36°47' E 026°34'  
2014-Dec-15 02:33N 36°15' E 026°03'1110.7
2014-Dec-15 01:33N 36°23' E 025°54'1010.4
2014-Dec-15 00:33N 36°31' E 025°45'1110.5
2014-Dec-14 23:33N 36°38' E 025°36'1110.8
2014-Dec-14 22:33N 36°46' E 025°26'1110.7
2014-Dec-14 21:33N 36°55' E 025°19'1110.5
2014-Dec-14 20:33N 37°06' E 025°19'3 2.5
2014-Dec-14 19:33N 37°06' E 025°22'0 0.0
2014-Dec-14 18:33N 37°06' E 025°22'0 0.0
2014-Dec-14 17:34N 37°06' E 025°22'0 0.0
2014-Dec-14 16:31N 37°06' E 025°22'1 0.6
2014-Dec-14 15:32N 37°06' E 025°22'0 0.0
2014-Dec-14 14:32N 37°06' E 025°22'0 0.0
2014-Dec-14 13:32N 37°06' E 025°22'1 0.6
2014-Dec-14 12:30N 37°06' E 025°22'0 0.0
2014-Dec-14 11:30N 37°06' E 025°22'1 0.6
2014-Dec-14 10:32N 37°06' E 025°22'0 0.0
2014-Dec-14 09:32N 37°06' E 025°22'0 0.0
2014-Dec-14 08:32N 37°06' E 025°22'0 0.0
2014-Dec-14 07:32N 37°06' E 025°22'0 0.0
2014-Dec-14 06:32N 37°06' E 025°22'0 0.4
2014-Dec-14 05:33N 37°06' E 025°22'9 9.3
2014-Dec-14 04:33N 37°15' E 025°17'8 8.2
2014-Dec-14 03:33N 37°20' E 025°09'9 9.0
2014-Dec-14 02:34N 37°20' E 024°58'9 9.1
2014-Dec-14 01:33N 37°22' E 024°47'12 9.6
2014-Dec-14 00:18N 37°28' E 024°33'11 8.7
2014-Dec-13 23:04N 37°29' E 024°20'5 9.1
2014-Dec-13 22:33N 37°31' E 024°14'10 9.8
2014-Dec-13 21:33N 37°36' E 024°04'19 2.7
2014-Dec-13 14:33N 37°42' E 023°41'1111.0
2014-Dec-13 13:33N 37°52' E 023°37'9 9.2
2014-Dec-13 12:34N 38°01' E 023°32'0 0.4
2014-Dec-13 11:11N 38°01' E 023°32'0 0.0
2014-Dec-13 10:26N 38°01' E 023°32'0 0.0
2014-Dec-13 09:29N 38°01' E 023°32'0 0.0
2014-Dec-13 08:29N 38°01' E 023°32'0 0.0
2014-Dec-13 07:23N 38°01' E 023°32'0 0.0
2014-Dec-13 05:29N 38°01' E 023°32'0 0.0
2014-Dec-13 04:17N 38°01' E 023°32'0 0.0
2014-Dec-13 03:11N 38°01' E 023°32'0 0.0
2014-Dec-13 02:26N 38°01' E 023°32'0 0.0
2014-Dec-13 00:32N 38°01' E 023°32'3 2.6
2014-Dec-12 23:32N 38°02' E 023°36'0 0.0
2014-Dec-12 22:32N 38°02' E 023°36'0 0.0
2014-Dec-12 21:32N 38°02' E 023°36'0 0.0
2014-Dec-12 20:32N 38°02' E 023°36'0 0.0
2014-Dec-12 19:29N 38°02' E 023°36'0 0.0
2014-Dec-12 18:29N 38°02' E 023°36'0 0.0
2014-Dec-12 17:29N 38°02' E 023°36'0 0.0
2014-Dec-12 16:32N 38°02' E 023°36'0 0.0
2014-Dec-12 15:32N 38°02' E 023°36'0 0.1
2014-Dec-12 14:33N 38°02' E 023°36'5 4.8
2014-Dec-12 13:33N 37°57' E 023°35'2 1.6
2014-Dec-12 12:31N 37°56' E 023°34'0 0.0
2014-Dec-12 11:31N 37°55' E 023°34'0 0.0
2014-Dec-12 10:31N 37°56' E 023°34'0 0.0
2014-Dec-12 09:31N 37°55' E 023°34'0 0.0
2014-Dec-12 08:31N 37°55' E 023°34'0 0.0
2014-Dec-12 07:31N 37°56' E 023°34'0 0.1
2014-Dec-12 06:31N 37°56' E 023°34'0 0.4
2014-Dec-12 05:29N 37°55' E 023°34'0 0.0
2014-Dec-12 04:32N 37°55' E 023°34'0 0.0
2014-Dec-12 03:32N 37°55' E 023°34'0 0.0
2014-Dec-12 02:32N 37°55' E 023°34'0 0.0
2014-Dec-12 01:32N 37°55' E 023°34'0 0.0
2014-Dec-12 00:32N 37°55' E 023°34'0 0.0
2014-Dec-11 23:32N 37°55' E 023°34'0 0.0
2014-Dec-11 22:32N 37°55' E 023°34'0 0.0
2014-Dec-11 21:32N 37°55' E 023°34'0 0.0
2014-Dec-11 20:32N 37°55' E 023°34'1 0.8
2014-Dec-11 19:33N 37°54' E 023°34'1010.0
2014-Dec-11 18:33N 37°46' E 023°41'2211.0
2014-Dec-11 16:31N 37°34' E 024°04'1411.5
2014-Dec-11 15:17N 37°30' E 024°22'810.7
2014-Dec-11 14:33N 37°27' E 024°31'1211.6
2014-Dec-11 13:34N 37°20' E 024°42'1111.1
2014-Dec-11 12:33N 37°13' E 024°54'1110.9
2014-Dec-11 11:33N 37°07' E 025°05'4 3.1
2014-Dec-11 10:20N 37°05' E 025°09'0 0.0
2014-Dec-11 09:20N 37°05' E 025°09'0 0.0
2014-Dec-11 08:32N 37°05' E 025°09'0 0.0
2014-Dec-11 07:32N 37°05' E 025°09'0 0.0
2014-Dec-11 06:32N 37°05' E 025°09'0 0.0
2014-Dec-11 05:26N 37°05' E 025°09'0 0.0
2014-Dec-11 04:26N 37°05' E 025°09'  
Track history (hours):
 
Tides and Currents Weather Stations Pressure Air Temp Water Temp Dewpoint Dewpoint Depression Visibility Wind Speed Wind Dir Waves Ship Positions

Eko 2

Last reported at 2014-Dec-21 03:33 UTC. Time now 2014-Dec-21 04:03 UTC.
Position N 36°60' E 026°02'.

Length 89 m; draft 4.3 m.

Type: Ship (hazmat cat A). MMSI: 240827000.

Date/timePositionNaut miles runAvg speedWind from/ knotsBaromVisibWave heightAir tempDewpointWater temp
2014-Dec-21 03:33N 36°60' E 026°02'9 8.8
2014-Dec-21 02:31N 36°57' E 026°13'10 9.8
2014-Dec-21 01:27N 36°52' E 026°24'1010.2
2014-Dec-21 00:31N 36°47' E 026°34'  
2014-Dec-15 02:33N 36°15' E 026°03'1110.7
2014-Dec-15 01:33N 36°23' E 025°54'1010.4
2014-Dec-15 00:33N 36°31' E 025°45'1110.5
2014-Dec-14 23:33N 36°38' E 025°36'1110.8
2014-Dec-14 22:33N 36°46' E 025°26'1110.7
2014-Dec-14 21:33N 36°55' E 025°19'1110.5
2014-Dec-14 20:33N 37°06' E 025°19'3 2.5
2014-Dec-14 19:33N 37°06' E 025°22'0 0.0
2014-Dec-14 18:33N 37°06' E 025°22'0 0.0
2014-Dec-14 17:34N 37°06' E 025°22'0 0.0
2014-Dec-14 16:31N 37°06' E 025°22'1 0.6
2014-Dec-14 15:32N 37°06' E 025°22'0 0.0
2014-Dec-14 14:32N 37°06' E 025°22'0 0.0
2014-Dec-14 13:32N 37°06' E 025°22'1 0.6
2014-Dec-14 12:30N 37°06' E 025°22'0 0.0
2014-Dec-14 11:30N 37°06' E 025°22'1 0.6
2014-Dec-14 10:32N 37°06' E 025°22'0 0.0
2014-Dec-14 09:32N 37°06' E 025°22'0 0.0
2014-Dec-14 08:32N 37°06' E 025°22'0 0.0
2014-Dec-14 07:32N 37°06' E 025°22'0 0.0
2014-Dec-14 06:32N 37°06' E 025°22'0 0.4
2014-Dec-14 05:33N 37°06' E 025°22'9 9.3
2014-Dec-14 04:33N 37°15' E 025°17'8 8.2
2014-Dec-14 03:33N 37°20' E 025°09'9 9.0
2014-Dec-14 02:34N 37°20' E 024°58'9 9.1
2014-Dec-14 01:33N 37°22' E 024°47'12 9.6
2014-Dec-14 00:18N 37°28' E 024°33'11 8.7
2014-Dec-13 23:04N 37°29' E 024°20'5 9.1
2014-Dec-13 22:33N 37°31' E 024°14'10 9.8
2014-Dec-13 21:33N 37°36' E 024°04'19 2.7
2014-Dec-13 14:33N 37°42' E 023°41'1111.0
2014-Dec-13 13:33N 37°52' E 023°37'9 9.2
2014-Dec-13 12:34N 38°01' E 023°32'0 0.4
2014-Dec-13 11:11N 38°01' E 023°32'0 0.0
2014-Dec-13 10:26N 38°01' E 023°32'0 0.0
2014-Dec-13 09:29N 38°01' E 023°32'0 0.0
2014-Dec-13 08:29N 38°01' E 023°32'0 0.0
2014-Dec-13 07:23N 38°01' E 023°32'0 0.0
2014-Dec-13 05:29N 38°01' E 023°32'0 0.0
2014-Dec-13 04:17N 38°01' E 023°32'0 0.0
2014-Dec-13 03:11N 38°01' E 023°32'0 0.0
2014-Dec-13 02:26N 38°01' E 023°32'0 0.0
2014-Dec-13 00:32N 38°01' E 023°32'3 2.6
2014-Dec-12 23:32N 38°02' E 023°36'0 0.0
2014-Dec-12 22:32N 38°02' E 023°36'0 0.0
2014-Dec-12 21:32N 38°02' E 023°36'0 0.0
2014-Dec-12 20:32N 38°02' E 023°36'0 0.0
2014-Dec-12 19:29N 38°02' E 023°36'0 0.0
2014-Dec-12 18:29N 38°02' E 023°36'0 0.0
2014-Dec-12 17:29N 38°02' E 023°36'0 0.0
2014-Dec-12 16:32N 38°02' E 023°36'0 0.0
2014-Dec-12 15:32N 38°02' E 023°36'0 0.1
2014-Dec-12 14:33N 38°02' E 023°36'5 4.8
2014-Dec-12 13:33N 37°57' E 023°35'2 1.6
2014-Dec-12 12:31N 37°56' E 023°34'0 0.0
2014-Dec-12 11:31N 37°55' E 023°34'0 0.0
2014-Dec-12 10:31N 37°56' E 023°34'0 0.0
2014-Dec-12 09:31N 37°55' E 023°34'0 0.0
2014-Dec-12 08:31N 37°55' E 023°34'0 0.0
2014-Dec-12 07:31N 37°56' E 023°34'0 0.1
2014-Dec-12 06:31N 37°56' E 023°34'0 0.4
2014-Dec-12 05:29N 37°55' E 023°34'0 0.0
2014-Dec-12 04:32N 37°55' E 023°34'0 0.0
2014-Dec-12 03:32N 37°55' E 023°34'0 0.0
2014-Dec-12 02:32N 37°55' E 023°34'0 0.0
2014-Dec-12 01:32N 37°55' E 023°34'0 0.0
2014-Dec-12 00:32N 37°55' E 023°34'0 0.0
2014-Dec-11 23:32N 37°55' E 023°34'0 0.0
2014-Dec-11 22:32N 37°55' E 023°34'0 0.0
2014-Dec-11 21:32N 37°55' E 023°34'0 0.0
2014-Dec-11 20:32N 37°55' E 023°34'1 0.8
2014-Dec-11 19:33N 37°54' E 023°34'1010.0
2014-Dec-11 18:33N 37°46' E 023°41'2211.0
2014-Dec-11 16:31N 37°34' E 024°04'1411.5
2014-Dec-11 15:17N 37°30' E 024°22'810.7
2014-Dec-11 14:33N 37°27' E 024°31'1211.6
2014-Dec-11 13:34N 37°20' E 024°42'1111.1
2014-Dec-11 12:33N 37°13' E 024°54'1110.9
2014-Dec-11 11:33N 37°07' E 025°05'4 3.1
2014-Dec-11 10:20N 37°05' E 025°09'0 0.0
2014-Dec-11 09:20N 37°05' E 025°09'0 0.0
2014-Dec-11 08:32N 37°05' E 025°09'0 0.0
2014-Dec-11 07:32N 37°05' E 025°09'0 0.0
2014-Dec-11 06:32N 37°05' E 025°09'0 0.0
2014-Dec-11 05:26N 37°05' E 025°09'0 0.0
2014-Dec-11 04:26N 37°05' E 025°09'  

Dump ship's entire track history